sensor_id;sensor_type;location;lat;lon;timestamp;temperature;humidity
16347;DHT22;8283;48.504;13.734;2023-07-22T19:04:40;21.90;56.70
16347;DHT22;8283;48.504;13.734;2023-07-22T19:07:25;21.90;57.10
16347;DHT22;8283;48.504;13.734;2023-07-22T19:10:10;22.10;57.10
16347;DHT22;8283;48.504;13.734;2023-07-22T19:12:54;22.30;56.90
16347;DHT22;8283;48.504;13.734;2023-07-22T19:15:39;22.50;56.70
16347;DHT22;8283;48.504;13.734;2023-07-22T19:18:23;22.80;56.60
16347;DHT22;8283;48.504;13.734;2023-07-22T19:21:07;22.90;56.30
16347;DHT22;8283;48.504;13.734;2023-07-22T19:23:51;23.00;56.10
16347;DHT22;8283;48.504;13.734;2023-07-22T19:26:36;23.10;56.00
16347;DHT22;8283;48.504;13.734;2023-07-22T19:29:20;23.20;56.00
16347;DHT22;8283;48.504;13.734;2023-07-22T19:32:04;23.20;56.00
16347;DHT22;8283;48.504;13.734;2023-07-22T19:34:49;23.30;55.90
16347;DHT22;8283;48.504;13.734;2023-07-22T19:37:33;23.30;55.80
16347;DHT22;8283;48.504;13.734;2023-07-22T19:40:18;23.30;55.70
16347;DHT22;8283;48.504;13.734;2023-07-22T19:43:02;23.30;55.70
16347;DHT22;8283;48.504;13.734;2023-07-22T19:45:47;23.30;55.80
16347;DHT22;8283;48.504;13.734;2023-07-22T19:48:43;23.20;55.70
16347;DHT22;8283;48.504;13.734;2023-07-22T19:51:27;23.30;55.80
16347;DHT22;8283;48.504;13.734;2023-07-22T19:54:11;23.30;55.70
16347;DHT22;8283;48.504;13.734;2023-07-22T19:56:56;23.20;55.60
16347;DHT22;8283;48.504;13.734;2023-07-22T19:59:40;23.20;55.60
16347;DHT22;8283;48.504;13.734;2023-07-22T20:02:24;23.10;55.60
16347;DHT22;8283;48.504;13.734;2023-07-22T20:05:08;23.10;55.70
16347;DHT22;8283;48.504;13.734;2023-07-22T20:07:53;23.00;55.70
16347;DHT22;8283;48.504;13.734;2023-07-22T20:10:38;23.00;55.70
16347;DHT22;8283;48.504;13.734;2023-07-22T20:13:22;22.90;55.80
16347;DHT22;8283;48.504;13.734;2023-07-22T20:16:07;22.90;55.90
16347;DHT22;8283;48.504;13.734;2023-07-22T20:18:52;22.80;55.90
16347;DHT22;8283;48.504;13.734;2023-07-22T20:21:36;22.80;56.00
16347;DHT22;8283;48.504;13.734;2023-07-22T20:24:20;22.70;56.00
16347;DHT22;8283;48.504;13.734;2023-07-22T20:27:05;22.60;56.00
16347;DHT22;8283;48.504;13.734;2023-07-22T20:29:53;22.60;56.10
16347;DHT22;8283;48.504;13.734;2023-07-22T20:32:37;22.40;56.20
16347;DHT22;8283;48.504;13.734;2023-07-22T20:35:22;22.40;56.20
16347;DHT22;8283;48.504;13.734;2023-07-22T20:38:06;22.30;56.30
16347;DHT22;8283;48.504;13.734;2023-07-22T20:40:51;22.30;56.30
16347;DHT22;8283;48.504;13.734;2023-07-22T20:43:36;22.20;56.50
16347;DHT22;8283;48.504;13.734;2023-07-22T20:46:20;22.20;56.60
16347;DHT22;8283;48.504;13.734;2023-07-22T20:49:05;22.20;56.80
16347;DHT22;8283;48.504;13.734;2023-07-22T20:51:49;22.10;56.80
16347;DHT22;8283;48.504;13.734;2023-07-22T20:54:34;22.10;57.00
16347;DHT22;8283;48.504;13.734;2023-07-22T20:57:18;22.00;57.00
16347;DHT22;8283;48.504;13.734;2023-07-22T21:00:03;22.00;57.20
16347;DHT22;8283;48.504;13.734;2023-07-22T21:02:48;22.00;57.30
16347;DHT22;8283;48.504;13.734;2023-07-22T21:05:32;21.90;57.30
16347;DHT22;8283;48.504;13.734;2023-07-22T21:08:17;21.90;57.40
16347;DHT22;8283;48.504;13.734;2023-07-22T21:11:02;21.80;57.40
16347;DHT22;8283;48.504;13.734;2023-07-22T21:13:48;21.80;57.60
16347;DHT22;8283;48.504;13.734;2023-07-22T21:16:32;21.80;57.70
16347;DHT22;8283;48.504;13.734;2023-07-22T21:19:17;21.80;57.70
16347;DHT22;8283;48.504;13.734;2023-07-22T21:22:04;21.70;57.80
16347;DHT22;8283;48.504;13.734;2023-07-22T21:24:48;21.70;57.80
16347;DHT22;8283;48.504;13.734;2023-07-22T21:27:34;21.60;57.80
16347;DHT22;8283;48.504;13.734;2023-07-22T21:30:18;21.60;57.80
16347;DHT22;8283;48.504;13.734;2023-07-22T21:33:04;21.60;57.90
16347;DHT22;8283;48.504;13.734;2023-07-22T21:35:48;21.50;58.00
16347;DHT22;8283;48.504;13.734;2023-07-22T21:38:33;21.50;58.10
16347;DHT22;8283;48.504;13.734;2023-07-22T21:41:21;21.40;58.20
16347;DHT22;8283;48.504;13.734;2023-07-22T21:44:05;21.40;58.30
16347;DHT22;8283;48.504;13.734;2023-07-22T21:46:51;21.40;58.40
16347;DHT22;8283;48.504;13.734;2023-07-22T21:49:35;21.30;58.50
16347;DHT22;8283;48.504;13.734;2023-07-22T21:52:20;21.30;58.60
16347;DHT22;8283;48.504;13.734;2023-07-22T21:55:06;21.20;58.60
16347;DHT22;8283;48.504;13.734;2023-07-22T21:57:51;21.20;58.70
16347;DHT22;8283;48.504;13.734;2023-07-22T22:00:37;21.10;58.70
16347;DHT22;8283;48.504;13.734;2023-07-22T22:03:21;21.10;58.80
16347;DHT22;8283;48.504;13.734;2023-07-22T22:06:07;21.00;58.90
16347;DHT22;8283;48.504;13.734;2023-07-22T22:08:51;21.10;59.00
16347;DHT22;8283;48.504;13.734;2023-07-22T22:11:36;21.00;59.10
16347;DHT22;8283;48.504;13.734;2023-07-22T22:14:20;20.90;59.20
16347;DHT22;8283;48.504;13.734;2023-07-22T22:17:04;20.90;59.20
16347;DHT22;8283;48.504;13.734;2023-07-22T22:19:49;20.90;59.40
16347;DHT22;8283;48.504;13.734;2023-07-22T22:22:33;20.80;59.30
16347;DHT22;8283;48.504;13.734;2023-07-22T22:25:17;20.80;59.50
16347;DHT22;8283;48.504;13.734;2023-07-22T22:28:02;20.80;59.60
16347;DHT22;8283;48.504;13.734;2023-07-22T22:30:49;20.70;59.60
16347;DHT22;8283;48.504;13.734;2023-07-22T22:33:33;20.70;59.70
16347;DHT22;8283;48.504;13.734;2023-07-22T22:36:17;20.70;59.70
16347;DHT22;8283;48.504;13.734;2023-07-22T22:39:01;20.60;59.70
16347;DHT22;8283;48.504;13.734;2023-07-22T22:41:46;20.60;59.70
16347;DHT22;8283;48.504;13.734;2023-07-22T22:44:31;20.60;59.90
16347;DHT22;8283;48.504;13.734;2023-07-22T22:47:15;20.50;59.90
16347;DHT22;8283;48.504;13.734;2023-07-22T22:49:59;20.40;60.00
16347;DHT22;8283;48.504;13.734;2023-07-22T22:52:44;20.50;60.10
16347;DHT22;8283;48.504;13.734;2023-07-22T22:55:28;20.40;60.30
16347;DHT22;8283;48.504;13.734;2023-07-22T22:58:12;20.30;60.40
16347;DHT22;8283;48.504;13.734;2023-07-22T23:00:56;20.30;60.50
16347;DHT22;8283;48.504;13.734;2023-07-22T23:03:41;20.30;60.70
16347;DHT22;8283;48.504;13.734;2023-07-22T23:06:25;20.30;60.70
16347;DHT22;8283;48.504;13.734;2023-07-22T23:09:11;20.20;60.80
16347;DHT22;8283;48.504;13.734;2023-07-22T23:11:55;20.20;60.90
16347;DHT22;8283;48.504;13.734;2023-07-22T23:14:43;20.20;60.90
16347;DHT22;8283;48.504;13.734;2023-07-22T23:17:27;20.20;61.00
16347;DHT22;8283;48.504;13.734;2023-07-22T23:20:13;20.10;61.10
16347;DHT22;8283;48.504;13.734;2023-07-22T23:22:58;20.00;61.20
16347;DHT22;8283;48.504;13.734;2023-07-22T23:25:42;20.00;61.20
16347;DHT22;8283;48.504;13.734;2023-07-22T23:28:28;20.00;61.30
16347;DHT22;8283;48.504;13.734;2023-07-22T23:31:12;19.90;61.40
16347;DHT22;8283;48.504;13.734;2023-07-22T23:33:58;19.90;61.60
16347;DHT22;8283;48.504;13.734;2023-07-22T23:36:42;19.90;61.90
16347;DHT22;8283;48.504;13.734;2023-07-22T23:39:28;19.80;61.90
16347;DHT22;8283;48.504;13.734;2023-07-22T23:42:12;19.80;62.10
16347;DHT22;8283;48.504;13.734;2023-07-22T23:44:58;19.80;62.20
16347;DHT22;8283;48.504;13.734;2023-07-22T23:47:42;19.80;62.40
16347;DHT22;8283;48.504;13.734;2023-07-22T23:50:27;19.80;62.40
16347;DHT22;8283;48.504;13.734;2023-07-22T23:53:11;19.70;62.50
16347;DHT22;8283;48.504;13.734;2023-07-22T23:55:56;19.70;62.70
16347;DHT22;8283;48.504;13.734;2023-07-22T23:58:40;19.70;62.90
